Time;durP1;ratioP1;P1;durP2;ratioP2;P2;SDS_P1;SDS_P2;PMS_P1;PMS_P2;Temp;Humidity;BMP_temperature;BMP_pressure;BME280_temperature;BME280_humidity;BME280_pressure;Samples;Min_cycle;Max_cycle;Signal;HPM_P1;HPM_P2
2024/03/29 00:02:04;;;;;;;;;;;;;;;16.99;53.87;99230.34;5051729;28;20384;-80
2024/03/29 00:04:30;;;;;;;;;;;;;;;17.00;52.75;99231.97;5068236;28;19924;-80
2024/03/29 00:06:55;;;;;;;;;;;;;;;16.96;53.33;99242.28;5053009;28;20416;-80
2024/03/29 00:09:20;;;;;;;;;;;;;;;16.92;53.14;99257.09;5052708;28;19917;-80
2024/03/29 00:11:45;;;;;;;;;;;;;;;16.88;53.63;99249.78;5052877;28;19956;-79
2024/03/29 00:14:11;;;;;;;;;;;;;;;16.86;53.33;99250.00;5052770;28;20309;-80
2024/03/29 00:16:36;;;;;;;;;;;;;;;16.87;53.86;99246.28;5051475;28;19933;-80
2024/03/29 00:19:01;;;;;;;;;;;;;;;16.84;53.49;99249.41;5052625;28;20360;-80
2024/03/29 00:21:26;;;;;;;;;;;;;;;16.80;53.71;99249.06;5052989;28;19978;-80
2024/03/29 00:23:52;;;;;;;;;;;;;;;16.77;53.87;99246.84;5052731;28;19912;-80
2024/03/29 00:26:17;;;;;;;;;;;;;;;16.75;53.78;99248.09;5052763;28;20059;-80
2024/03/29 00:28:42;;;;;;;;;;;;;;;16.71;53.40;99253.06;5052598;28;19913;-80
2024/03/29 00:31:08;;;;;;;;;;;;;;;16.67;54.01;99243.91;5052607;28;19921;-80
2024/03/29 00:33:33;;;;;;;;;;;;;;;16.64;53.79;99243.50;5051153;28;20359;-80
2024/03/29 00:35:58;;;;;;;;;;;;;;;16.61;53.58;99247.44;5052332;28;19912;-79
2024/03/29 00:38:24;;;;;;;;;;;;;;;16.61;53.67;99255.44;5052507;28;19913;-79
2024/03/29 00:40:49;;;;;;;;;;;;;;;16.59;53.35;99248.69;5052515;28;20292;-80
2024/03/29 00:43:14;;;;;;;;;;;;;;;16.55;53.67;99258.97;5052405;28;20003;-79
2024/03/29 00:45:40;;;;;;;;;;;;;;;16.53;54.84;99255.72;5052044;28;19967;-80
2024/03/29 00:48:05;;;;;;;;;;;;;;;16.50;53.45;99253.50;5051023;28;20317;-80
2024/03/29 00:50:30;;;;;;;;;;;;;;;16.46;53.85;99252.31;5051947;28;20464;-80
2024/03/29 00:52:56;;;;;;;;;;;;;;;16.43;54.05;99253.59;5051886;28;20305;-80
2024/03/29 00:55:21;;;;;;;;;;;;;;;16.37;54.67;99259.81;5051930;28;19916;-80
2024/03/29 00:57:46;;;;;;;;;;;;;;;16.33;54.06;99252.44;5052304;28;19963;-80
2024/03/29 01:00:12;;;;;;;;;;;;;;;16.27;54.55;99253.34;5052340;28;19913;-80
2024/03/29 01:02:37;;;;;;;;;;;;;;;16.21;54.69;99261.19;5051553;28;19990;-80
2024/03/29 01:05:02;;;;;;;;;;;;;;;16.21;54.21;99261.19;5052296;28;19913;-80
2024/03/29 01:07:28;;;;;;;;;;;;;;;16.19;54.57;99257.13;5067827;28;20373;-80
2024/03/29 01:09:53;;;;;;;;;;;;;;;16.17;53.93;99251.19;5051316;28;19917;-80
2024/03/29 01:12:19;;;;;;;;;;;;;;;16.14;53.93;99254.28;5051937;28;19953;-80
2024/03/29 01:14:44;;;;;;;;;;;;;;;16.05;55.20;99256.44;5051907;28;20302;-80
2024/03/29 01:17:10;;;;;;;;;;;;;;;16.00;54.69;99255.47;5051840;28;19913;-80
2024/03/29 01:19:35;;;;;;;;;;;;;;;15.97;54.16;99248.72;5050534;28;19966;-80
2024/03/29 01:22:00;;;;;;;;;;;;;;;15.85;54.77;99253.97;5052075;28;19935;-80
2024/03/29 01:24:25;;;;;;;;;;;;;;;15.72;54.96;99259.41;5067253;28;20049;-80
2024/03/29 01:26:51;;;;;;;;;;;;;;;15.64;54.95;99257.03;5050498;28;19970;-80
2024/03/29 01:29:16;;;;;;;;;;;;;;;15.49;55.00;99269.78;5051657;28;19909;-80
2024/03/29 01:31:42;;;;;;;;;;;;;;;15.49;55.07;99272.44;5051986;28;19951;-80
2024/03/29 01:34:07;;;;;;;;;;;;;;;15.51;54.31;99273.03;5051748;28;19927;-81
2024/03/29 01:36:32;;;;;;;;;;;;;;;15.51;54.93;99283.69;5051599;28;19920;-80
2024/03/29 01:38:58;;;;;;;;;;;;;;;15.51;54.52;99279.16;5050309;28;20068;-80
2024/03/29 01:41:25;;;;;;;;;;;;;;;15.51;54.37;99292.47;5050509;28;19913;-81
2024/03/29 01:43:50;;;;;;;;;;;;;;;15.53;54.52;99284.28;5067032;28;19919;-79
2024/03/29 01:46:17;;;;;;;;;;;;;;;15.51;54.72;99287.16;5051460;28;19913;-80
2024/03/29 01:48:43;;;;;;;;;;;;;;;15.46;54.67;99288.84;5051608;28;19932;-80
2024/03/29 01:51:11;;;;;;;;;;;;;;;15.44;54.51;99291.72;5050151;28;20380;-80
2024/03/29 01:53:36;;;;;;;;;;;;;;;15.40;55.34;99287.03;5050456;28;19913;-80
2024/03/29 01:56:02;;;;;;;;;;;;;;;15.33;55.08;99278.28;5050070;28;19924;-81
2024/03/29 01:58:27;;;;;;;;;;;;;;;15.32;54.79;99279.31;5049947;28;19912;-81
2024/03/29 02:00:57;;;;;;;;;;;;;;;15.26;54.66;99279.16;5051645;28;20325;-80
2024/03/29 02:03:23;;;;;;;;;;;;;;;15.21;55.07;99283.47;5051542;28;20409;-80
2024/03/29 02:05:49;;;;;;;;;;;;;;;15.18;54.71;99283.91;5050156;28;19966;-78
2024/03/29 02:08:14;;;;;;;;;;;;;;;15.08;55.64;99288.88;5050104;28;19979;-80
2024/03/29 02:10:39;;;;;;;;;;;;;;;15.00;55.53;99283.81;5051391;28;20309;-80
2024/03/29 02:13:05;;;;;;;;;;;;;;;14.97;55.72;99293.03;5051516;28;20365;-80
2024/03/29 02:15:30;;;;;;;;;;;;;;;15.00;54.85;99289.94;5054441;28;19912;-80
2024/03/29 02:17:56;;;;;;;;;;;;;;;14.98;55.26;99297.31;5055066;28;19923;-80
2024/03/29 02:20:22;;;;;;;;;;;;;;;14.98;55.13;99297.31;5055211;28;19919;-80
2024/03/29 02:22:54;;;;;;;;;;;;;;;14.99;55.21;99309.59;5054895;28;19913;-79
2024/03/29 02:25:20;;;;;;;;;;;;;;;14.99;55.26;99300.78;5055189;28;20384;-80
2024/03/29 02:27:45;;;;;;;;;;;;;;;14.97;55.32;99301.00;5055324;28;19995;-80
2024/03/29 02:30:14;;;;;;;;;;;;;;;15.00;54.64;99311.22;5055011;28;20363;-80
2024/03/29 02:32:39;;;;;;;;;;;;;;;14.98;54.62;99313.25;5054672;28;19942;-80
2024/03/29 02:35:05;;;;;;;;;;;;;;;14.96;54.64;99325.13;5054738;28;19919;-80
2024/03/29 02:37:30;;;;;;;;;;;;;;;14.90;54.67;99326.81;5054653;28;19935;-80
2024/03/29 02:39:55;;;;;;;;;;;;;;;14.85;55.02;99323.94;5054709;28;19967;-81
2024/03/29 02:42:20;;;;;;;;;;;;;;;14.78;55.47;99326.63;5054428;28;20381;-80
2024/03/29 02:44:46;;;;;;;;;;;;;;;14.71;55.24;99325.00;5054203;28;19920;-81
2024/03/29 02:47:11;;;;;;;;;;;;;;;14.68;55.49;99326.25;5054421;28;19966;-80
2024/03/29 02:49:36;;;;;;;;;;;;;;;14.69;55.35;99327.06;5054366;28;20385;-80
2024/03/29 02:52:02;;;;;;;;;;;;;;;14.71;54.98;99336.44;5054517;28;19920;-80
2024/03/29 02:54:27;;;;;;;;;;;;;;;14.73;54.98;99331.75;5054358;28;19913;-81
2024/03/29 02:56:52;;;;;;;;;;;;;;;14.70;55.38;99339.31;5054074;28;20332;-80
2024/03/29 02:59:17;;;;;;;;;;;;;;;14.71;55.18;99333.78;5054334;28;19913;-81
2024/03/29 03:01:43;;;;;;;;;;;;;;;14.72;54.72;99347.91;5054226;28;19912;-80
2024/03/29 03:04:08;;;;;;;;;;;;;;;14.68;55.14;99349.34;5054179;28;20389;-80
2024/03/29 03:06:33;;;;;;;;;;;;;;;14.70;55.02;99360.59;5054308;28;19913;-80
2024/03/29 03:11:42;;;;;;;;;;;;;;;14.66;54.85;99367.34;5054489;28;19924;-80
2024/03/29 03:14:08;;;;;;;;;;;;;;;14.59;55.19;99368.16;5054413;28;20309;-80
2024/03/29 03:16:33;;;;;;;;;;;;;;;14.58;54.96;99379.00;5053946;28;20360;-80
2024/03/29 03:18:59;;;;;;;;;;;;;;;14.58;54.63;99390.44;5052681;28;19913;-81
2024/03/29 03:21:24;;;;;;;;;;;;;;;14.56;55.20;99395.16;5052515;28;19917;-81
2024/03/29 03:23:50;;;;;;;;;;;;;;;14.56;54.98;99389.03;5053702;28;19919;-81
2024/03/29 03:26:15;;;;;;;;;;;;;;;14.44;55.41;99390.69;5053206;28;19999;-81
2024/03/29 03:28:40;;;;;;;;;;;;;;;14.32;55.61;99391.28;5053552;28;20377;-81
2024/03/29 03:31:07;;;;;;;;;;;;;;;14.37;55.24;99381.88;5053523;28;19916;-81
2024/03/29 03:33:32;;;;;;;;;;;;;;;14.42;55.20;99392.69;5053695;28;19913;-81
2024/03/29 03:35:57;;;;;;;;;;;;;;;14.44;55.25;99388.84;5053529;28;19919;-81
2024/03/29 03:38:22;;;;;;;;;;;;;;;14.47;55.19;99406.22;5053696;28;20054;-80
2024/03/29 03:40:48;;;;;;;;;;;;;;;14.47;54.96;99422.97;5053548;28;19916;-80
2024/03/29 03:43:13;;;;;;;;;;;;;;;14.48;54.79;99421.13;5053537;28;20008;-80
2024/03/29 03:45:39;;;;;;;;;;;;;;;14.42;55.62;99427.22;5053863;28;19913;-80
2024/03/29 03:48:05;;;;;;;;;;;;;;;14.38;55.29;99434.78;5054185;28;19916;-80
2024/03/29 03:50:30;;;;;;;;;;;;;;;14.37;55.42;99442.97;5053020;28;19917;-81
2024/03/29 03:52:56;;;;;;;;;;;;;;;14.37;55.31;99443.78;5053282;28;20355;-81
2024/03/29 03:55:21;;;;;;;;;;;;;;;14.35;55.73;99443.16;5051818;28;19919;-81
2024/03/29 03:57:46;;;;;;;;;;;;;;;14.34;56.19;99446.84;5052974;28;19944;-81
2024/03/29 04:00:12;;;;;;;;;;;;;;;14.32;55.63;99441.75;5053068;28;19913;-81
2024/03/29 04:02:37;;;;;;;;;;;;;;;14.35;55.33;99447.66;5052945;28;19920;-81
2024/03/29 04:05:03;;;;;;;;;;;;;;;14.35;55.40;99445.81;5053132;28;20396;-81
2024/03/29 04:07:28;;;;;;;;;;;;;;;14.39;55.08;99459.50;5052959;28;19921;-81
2024/03/29 04:09:53;;;;;;;;;;;;;;;14.42;54.81;99467.06;5052795;28;20401;-81
2024/03/29 04:12:18;;;;;;;;;;;;;;;14.39;55.41;99468.28;5052971;28;19913;-81
2024/03/29 04:14:44;;;;;;;;;;;;;;;14.39;55.25;99476.25;5051794;28;19911;-81
2024/03/29 04:17:09;;;;;;;;;;;;;;;14.38;55.10;99482.59;5052784;28;19912;-80
2024/03/29 04:19:34;;;;;;;;;;;;;;;14.36;54.72;99486.47;5052807;28;19913;-81
2024/03/29 04:22:00;;;;;;;;;;;;;;;14.33;55.39;99485.06;5051412;28;19914;-81
2024/03/29 04:24:25;;;;;;;;;;;;;;;14.32;55.35;99478.91;5051315;28;19956;-81
2024/03/29 04:26:50;;;;;;;;;;;;;;;14.26;55.53;99495.66;5052615;28;19912;-80
2024/03/29 04:29:16;;;;;;;;;;;;;;;14.29;55.06;99508.53;5052601;28;19912;-81
2024/03/29 04:31:41;;;;;;;;;;;;;;;14.26;54.80;99505.47;5067771;28;19920;-80
2024/03/29 04:34:06;;;;;;;;;;;;;;;14.26;55.15;99516.09;5052495;28;20004;-81
2024/03/29 04:36:32;;;;;;;;;;;;;;;14.28;54.74;99506.91;5051531;28;20347;-81
2024/03/29 04:38:57;;;;;;;;;;;;;;;14.27;54.98;99513.25;5052350;28;19913;-80
2024/03/29 04:41:22;;;;;;;;;;;;;;;14.22;55.06;99517.53;5052383;28;19916;-81
2024/03/29 04:43:47;;;;;;;;;;;;;;;14.20;54.79;99517.72;5067860;28;20361;-81
2024/03/29 04:46:13;;;;;;;;;;;;;;;14.19;55.42;99525.88;5052418;28;19912;-81
2024/03/29 04:48:42;;;;;;;;;;;;;;;14.20;55.09;99520.38;5052197;28;19913;-81
2024/03/29 04:51:11;;;;;;;;;;;;;;;14.24;54.89;99520.78;5052270;28;19924;-81
2024/03/29 04:53:37;;;;;;;;;;;;;;;14.29;54.88;99515.69;5052306;28;20282;-80
2024/03/29 04:56:02;;;;;;;;;;;;;;;14.31;54.78;99522.44;5052258;28;19960;-81
2024/03/29 04:58:28;;;;;;;;;;;;;;;14.33;55.08;99514.25;5050824;28;19923;-80
2024/03/29 05:00:54;;;;;;;;;;;;;;;14.34;54.56;99515.91;5052380;28;19909;-80
2024/03/29 05:03:20;;;;;;;;;;;;;;;14.37;54.63;99512.03;5052208;28;19924;-81
2024/03/29 05:05:45;;;;;;;;;;;;;;;14.42;54.49;99515.72;5052353;28;19927;-80
2024/03/29 05:08:10;;;;;;;;;;;;;;;14.46;54.17;99513.50;5052813;28;20345;-81
2024/03/29 05:10:36;;;;;;;;;;;;;;;14.48;54.31;99508.78;5052020;28;20293;-81
2024/03/29 05:13:01;;;;;;;;;;;;;;;14.52;53.85;99515.31;5051828;28;19913;-81
2024/03/29 05:15:27;;;;;;;;;;;;;;;14.60;53.65;99526.56;5051739;28;19960;-81
2024/03/29 05:17:53;;;;;;;;;;;;;;;14.67;53.48;99536.38;5051930;28;19920;-81
2024/03/29 05:20:18;;;;;;;;;;;;;;;14.72;53.28;99544.56;5051995;28;19920;-81
2024/03/29 05:22:43;;;;;;;;;;;;;;;14.75;53.38;99538.84;5051841;28;20313;-81
2024/03/29 05:25:09;;;;;;;;;;;;;;;14.77;52.70;99550.91;5066886;28;19913;-81
2024/03/29 05:27:34;;;;;;;;;;;;;;;14.82;52.79;99558.25;5051795;28;20287;-79
2024/03/29 05:29:59;;;;;;;;;;;;;;;14.86;52.61;99557.66;5051763;28;19917;-80
2024/03/29 05:32:24;;;;;;;;;;;;;;;14.87;52.82;99559.31;5051689;28;19916;-81
2024/03/29 05:34:50;;;;;;;;;;;;;;;14.92;52.35;99558.69;5051326;28;19919;-81
2024/03/29 05:37:17;;;;;;;;;;;;;;;14.98;52.50;99549.88;5051626;28;19913;-80
2024/03/29 05:39:42;;;;;;;;;;;;;;;15.02;52.06;99558.28;5050304;28;19913;-81
2024/03/29 05:42:08;;;;;;;;;;;;;;;15.09;51.87;99567.88;5051776;28;19970;-79
2024/03/29 05:44:34;;;;;;;;;;;;;;;15.20;51.59;99569.09;5051598;28;19966;-78
2024/03/29 05:47:00;;;;;;;;;;;;;;;15.25;51.04;99564.78;5050405;28;20305;-81
2024/03/29 05:49:26;;;;;;;;;;;;;;;15.36;50.73;99565.97;5055203;28;19913;-80
2024/03/29 05:51:51;;;;;;;;;;;;;;;15.44;50.42;99568.41;5054283;28;19920;-80
2024/03/29 05:54:17;;;;;;;;;;;;;;;15.53;50.23;99569.81;5055468;28;19915;-80
2024/03/29 05:56:42;;;;;;;;;;;;;;;15.63;50.05;99576.63;5055535;28;19952;-80
2024/03/29 05:59:08;;;;;;;;;;;;;;;15.70;49.85;99572.91;5054238;28;20025;-80
2024/03/29 06:01:33;;;;;;;;;;;;;;;15.78;49.35;99570.00;5055271;28;19951;-80
2024/03/29 06:04:04;;;;;;;;;;;;;;;15.85;49.52;99581.44;5055083;28;19967;-80
2024/03/29 06:06:29;;;;;;;;;;;;;;;15.86;47.50;99585.75;5055217;28;19917;-80
2024/03/29 06:08:55;;;;;;;;;;;;;;;15.88;47.59;99590.84;5055571;28;19921;-80
2024/03/29 06:11:20;;;;;;;;;;;;;;;15.93;47.12;99606.19;5053914;28;19917;-80
2024/03/29 06:19:08;;;;;;;;;;;;;;;15.82;47.43;99619.13;5055105;28;20304;-80
2024/03/29 06:21:38;;;;;;;;;;;;;;;15.89;46.62;99637.75;5054851;28;19913;-81
2024/03/29 06:24:05;;;;;;;;;;;;;;;15.99;47.16;99632.78;5055336;28;20367;-80
2024/03/29 06:26:30;;;;;;;;;;;;;;;16.07;45.99;99634.41;5054237;28;19920;-81
2024/03/29 06:28:55;;;;;;;;;;;;;;;16.14;46.77;99636.00;5054950;28;20319;-79
2024/03/29 06:31:21;;;;;;;;;;;;;;;16.24;47.13;99637.41;5054865;28;19974;-79
2024/03/29 06:33:46;;;;;;;;;;;;;;;16.31;45.92;99630.19;5054473;28;19912;-79
2024/03/29 06:36:11;;;;;;;;;;;;;;;16.36;45.89;99635.72;5054553;28;20375;-80
2024/03/29 06:38:36;;;;;;;;;;;;;;;16.42;46.08;99626.88;5054321;28;19913;-80
2024/03/29 06:41:03;;;;;;;;;;;;;;;16.48;46.37;99637.50;5054342;28;20007;-80
2024/03/29 06:43:28;;;;;;;;;;;;;;;16.54;46.61;99638.50;5054392;28;19921;-79
2024/03/29 06:45:54;;;;;;;;;;;;;;;16.60;45.02;99637.63;5053126;28;19962;-80
2024/03/29 06:48:19;;;;;;;;;;;;;;;16.68;43.30;99644.59;5052912;28;19924;-80
2024/03/29 06:50:44;;;;;;;;;;;;;;;16.78;45.84;99651.09;5054086;28;19917;-80
2024/03/29 06:53:10;;;;;;;;;;;;;;;16.90;44.69;99651.22;5053937;28;19916;-80
2024/03/29 06:55:37;;;;;;;;;;;;;;;16.96;43.79;99653.00;5053807;28;20016;-79
2024/03/29 06:58:02;;;;;;;;;;;;;;;17.03;44.01;99666.28;5052761;28;19967;-79
2024/03/29 07:00:27;;;;;;;;;;;;;;;17.09;44.25;99658.28;5053308;28;19951;-80
2024/03/29 07:02:53;;;;;;;;;;;;;;;17.17;44.27;99664.38;5053949;28;19928;-81
2024/03/29 07:05:18;;;;;;;;;;;;;;;17.27;44.84;99665.50;5053932;28;20444;-79
2024/03/29 07:07:45;;;;;;;;;;;;;;;17.35;43.76;99673.25;5052709;28;19912;-80
2024/03/29 07:10:11;;;;;;;;;;;;;;;17.49;43.90;99668.59;5053978;28;19917;-79
2024/03/29 07:12:36;;;;;;;;;;;;;;;17.62;44.19;99668.47;5052577;28;20372;-79
2024/03/29 07:15:01;;;;;;;;;;;;;;;17.75;43.37;99672.88;5053758;28;19920;-80
2024/03/29 07:17:27;;;;;;;;;;;;;;;17.85;43.40;99672.41;5053689;28;19913;-80
2024/03/29 07:19:52;;;;;;;;;;;;;;;17.95;43.62;99667.38;5053859;28;20286;-80
2024/03/29 07:22:17;;;;;;;;;;;;;;;18.03;43.84;99675.91;5053766;28;19963;-80
2024/03/29 07:24:42;;;;;;;;;;;;;;;18.16;43.15;99684.78;5052397;28;20385;-80
2024/03/29 07:27:08;;;;;;;;;;;;;;;18.28;43.45;99688.34;5053667;28;19913;-80
2024/03/29 07:29:34;;;;;;;;;;;;;;;18.36;40.63;99683.50;5053554;28;19940;-80
2024/03/29 07:32:00;;;;;;;;;;;;;;;18.43;41.51;99686.91;5053531;28;20363;-80
2024/03/29 07:34:25;;;;;;;;;;;;;;;18.55;41.21;99680.81;5052286;28;19913;-79
2024/03/29 07:36:50;;;;;;;;;;;;;;;18.66;42.51;99688.13;5052226;28;19912;-80
2024/03/29 07:39:16;;;;;;;;;;;;;;;18.73;42.02;99681.63;5053512;28;19912;-80
2024/03/29 07:41:41;;;;;;;;;;;;;;;18.83;40.36;99674.91;5068954;28;20010;-81
2024/03/29 07:44:08;;;;;;;;;;;;;;;18.89;42.43;99682.84;5052398;28;19995;-80
2024/03/29 07:46:33;;;;;;;;;;;;;;;18.95;41.57;99692.63;5069684;28;19920;-81
2024/03/29 07:48:59;;;;;;;;;;;;;;;19.02;41.54;99685.31;5053131;28;19913;-80
2024/03/29 07:51:25;;;;;;;;;;;;;;;19.10;40.48;99681.47;5064959;28;20412;-79
2024/03/29 07:53:50;;;;;;;;;;;;;;;19.20;39.73;99688.94;5067718;28;19921;-80
2024/03/29 07:56:16;;;;;;;;;;;;;;;19.29;40.67;99688.38;5059427;28;20404;-80
2024/03/29 07:58:41;;;;;;;;;;;;;;;19.35;38.85;99692.84;5071428;28;19935;-80
2024/03/29 08:01:06;;;;;;;;;;;;;;;19.44;40.13;99687.97;5063235;28;20390;-80
2024/03/29 08:03:34;;;;;;;;;;;;;;;19.57;40.58;99694.97;5070428;28;19924;-80
2024/03/29 08:06:00;;;;;;;;;;;;;;;19.67;38.36;99697.88;5071450;28;20308;-80
2024/03/29 08:08:27;;;;;;;;;;;;;;;19.77;36.82;99702.66;5072500;28;20363;-80
2024/03/29 08:10:52;;;;;;;;;;;;;;;19.86;39.06;99695.91;5069569;28;19971;-80
2024/03/29 08:13:20;;;;;;;;;;;;;;;19.96;37.17;99683.53;5072139;28;19960;-80
2024/03/29 08:15:45;;;;;;;;;;;;;;;20.08;38.68;99685.41;5071431;28;19916;-80
2024/03/29 08:18:11;;;;;;;;;;;;;;;20.16;36.90;99690.41;5072520;28;20415;-79
2024/03/29 08:20:36;;;;;;;;;;;;;;;20.27;37.86;99694.91;5088241;28;19959;-80
2024/03/29 08:23:01;;;;;;;;;;;;;;;20.35;36.77;99694.53;5072336;28;19928;-80
2024/03/29 08:25:27;;;;;;;;;;;;;;;20.47;36.95;99694.53;5070820;28;20342;-80
2024/03/29 08:27:58;;;;;;;;;;;;;;;20.60;36.69;99702.28;5070887;28;20012;-80
2024/03/29 08:30:23;;;;;;;;;;;;;;;20.71;35.96;99695.25;5068251;28;20486;-80
2024/03/29 08:32:49;;;;;;;;;;;;;;;20.83;36.57;99704.91;5069867;28;19920;-79
2024/03/29 08:35:14;;;;;;;;;;;;;;;20.96;36.42;99702.97;5072334;28;20407;-80
2024/03/29 08:37:39;;;;;;;;;;;;;;;21.08;37.12;99703.72;5072234;28;19913;-80
2024/03/29 08:40:05;;;;;;;;;;;;;;;21.20;37.08;99699.09;5068262;28;19982;-79
2024/03/29 08:42:33;;;;;;;;;;;;;;;21.33;35.58;99695.28;5067698;28;19920;-80
2024/03/29 08:45:00;;;;;;;;;;;;;;;21.41;36.28;99694.88;5066787;28;20016;-79
2024/03/29 08:47:26;;;;;;;;;;;;;;;21.54;36.13;99699.91;5069430;28;20392;-80
2024/03/29 08:49:51;;;;;;;;;;;;;;;21.65;35.80;99696.34;5067551;28;19928;-80
2024/03/29 08:52:17;;;;;;;;;;;;;;;21.85;34.92;99693.13;5061538;28;19946;-80
2024/03/29 08:54:43;;;;;;;;;;;;;;;22.04;34.82;99696.38;5071341;28;19917;-79
2024/03/29 08:57:08;;;;;;;;;;;;;;;22.20;34.81;99695.50;5070107;28;19917;-79
2024/03/29 08:59:33;;;;;;;;;;;;;;;22.35;35.36;99695.72;5071729;28;19912;-79
2024/03/29 09:02:03;;;;;;;;;;;;;;;22.55;34.82;99691.63;5066802;28;19924;-78
2024/03/29 09:04:29;;;;;;;;;;;;;;;22.70;32.82;99698.00;5059738;28;19924;-79
2024/03/29 09:06:54;;;;;;;;;;;;;;;22.87;33.17;99702.50;5071674;28;20450;-78
2024/03/29 09:09:19;;;;;;;;;;;;;;;23.02;33.16;99697.25;5070958;28;19931;-79
2024/03/29 09:11:44;;;;;;;;;;;;;;;23.22;34.62;99702.03;5068930;28;20126;-79
2024/03/29 09:14:10;;;;;;;;;;;;;;;23.40;33.24;99702.44;5070094;28;19913;-80
2024/03/29 09:16:35;;;;;;;;;;;;;;;23.50;31.56;99695.50;5071133;28;19916;-80
2024/03/29 09:19:00;;;;;;;;;;;;;;;23.60;29.19;99695.59;5066000;28;19916;-81
2024/03/29 09:21:26;;;;;;;;;;;;;;;23.70;31.85;99693.78;5051484;28;19956;-80
2024/03/29 09:23:52;;;;;;;;;;;;;;;23.84;31.55;99686.06;5067622;28;20266;-80
2024/03/29 09:26:18;;;;;;;;;;;;;;;24.01;31.57;99683.19;5071582;28;19916;-79
2024/03/29 09:28:43;;;;;;;;;;;;;;;24.10;32.06;99697.78;5070480;28;19966;-79
2024/03/29 09:31:09;;;;;;;;;;;;;;;24.32;31.90;99694.94;5075945;28;19925;-78
2024/03/29 09:33:34;;;;;;;;;;;;;;;24.45;29.87;99688.25;5050360;28;19996;-79
2024/03/29 09:36:00;;;;;;;;;;;;;;;24.52;31.49;99689.63;5051597;28;20360;-78
2024/03/29 09:38:26;;;;;;;;;;;;;;;24.55;30.57;99688.31;5050476;28;19916;-79
2024/03/29 09:40:57;;;;;;;;;;;;;;;24.70;30.51;99686.44;5058481;28;19924;-80
2024/03/29 09:43:24;;;;;;;;;;;;;;;24.93;31.60;99678.91;5065524;28;19917;-80
2024/03/29 09:45:49;;;;;;;;;;;;;;;25.18;30.14;99681.66;5051464;28;19916;-80
2024/03/29 09:48:15;;;;;;;;;;;;;;;25.23;28.42;99673.53;5050148;28;19919;-80
2024/03/29 09:50:40;;;;;;;;;;;;;;;25.27;29.17;99674.66;5051528;28;20364;-80
2024/03/29 09:53:05;;;;;;;;;;;;;;;25.53;31.48;99672.72;5049972;28;19978;-80
2024/03/29 09:55:31;;;;;;;;;;;;;;;25.70;30.04;99671.66;5049827;28;19917;-79
2024/03/29 09:57:57;;;;;;;;;;;;;;;25.89;30.68;99664.56;5052493;28;20605;-79
2024/03/29 10:00:22;;;;;;;;;;;;;;;25.98;28.87;99663.72;5069184;28;19917;-79
2024/03/29 10:02:49;;;;;;;;;;;;;;;26.22;28.39;99663.09;5069773;28;20463;-80
2024/03/29 10:05:15;;;;;;;;;;;;;;;26.44;26.12;99657.31;5071264;28;19913;-80
2024/03/29 10:07:40;;;;;;;;;;;;;;;26.60;25.23;99651.53;5071521;28;19913;-80
2024/03/29 10:10:06;;;;;;;;;;;;;;;26.73;28.50;99647.38;5070993;28;19921;-80
2024/03/29 10:12:31;;;;;;;;;;;;;;;26.79;28.76;99648.19;5070121;28;19920;-79
2024/03/29 10:15:08;;;;;;;;;;;;;;;26.87;27.06;99642.97;5068747;28;19924;-80
2024/03/29 10:17:34;;;;;;;;;;;;;;;27.03;25.59;99640.19;5085248;28;19923;-79
2024/03/29 10:20:03;;;;;;;;;;;;;;;27.24;27.22;99647.03;5070053;28;19912;-80
2024/03/29 10:22:28;;;;;;;;;;;;;;;27.45;27.47;99642.22;5071482;28;19963;-80
2024/03/29 10:24:54;;;;;;;;;;;;;;;27.54;27.34;99648.66;5071255;28;19913;-80
2024/03/29 10:27:19;;;;;;;;;;;;;;;27.58;24.99;99644.28;5069098;28;20384;-79
2024/03/29 10:29:44;;;;;;;;;;;;;;;27.64;28.89;99645.88;5072213;28;19921;-80
2024/03/29 10:32:09;;;;;;;;;;;;;;;27.73;26.92;99640.63;5058771;28;19959;-79
2024/03/29 10:34:37;;;;;;;;;;;;;;;27.85;26.09;99641.03;5059709;28;19923;-79
2024/03/29 10:37:03;;;;;;;;;;;;;;;27.98;23.49;99634.91;5074499;28;20432;-80
2024/03/29 10:39:33;;;;;;;;;;;;;;;28.03;25.36;99636.75;5070619;28;19995;-80
2024/03/29 10:41:59;;;;;;;;;;;;;;;28.20;25.61;99628.09;5071350;28;19927;-80
2024/03/29 10:44:25;;;;;;;;;;;;;;;28.34;26.31;99627.16;5057395;28;19917;-80
2024/03/29 10:46:52;;;;;;;;;;;;;;;28.49;22.90;99628.84;5062891;28;19946;-79
2024/03/29 10:49:18;;;;;;;;;;;;;;;28.68;26.52;99626.09;5074398;28;19917;-80
2024/03/29 10:51:43;;;;;;;;;;;;;;;28.87;27.69;99613.31;5072892;28;19924;-80
2024/03/29 10:54:12;;;;;;;;;;;;;;;29.02;25.27;99606.84;5074212;28;19912;-78
2024/03/29 10:56:38;;;;;;;;;;;;;;;29.18;25.29;99607.41;5072676;28;19912;-81
2024/03/29 10:59:09;;;;;;;;;;;;;;;29.25;22.58;99600.47;5072878;28;19916;-79
2024/03/29 11:01:34;;;;;;;;;;;;;;;29.21;25.84;99596.72;5070745;28;19912;-80
2024/03/29 11:04:05;;;;;;;;;;;;;;;29.24;25.16;99603.47;5072372;28;20396;-80
2024/03/29 11:06:32;;;;;;;;;;;;;;;29.22;25.71;99597.53;5072600;28;19912;-78
2024/03/29 11:08:58;;;;;;;;;;;;;;;29.16;24.30;99594.09;5052292;28;19935;-80
2024/03/29 11:11:30;;;;;;;;;;;;;;;29.23;26.28;99599.13;5065673;28;19943;-80
2024/03/29 11:14:02;;;;;;;;;;;;;;;29.30;22.33;99584.03;5073799;28;19912;-79
2024/03/29 11:16:28;;;;;;;;;;;;;;;29.47;23.95;99583.47;5060453;28;19996;-79
2024/03/29 11:18:53;;;;;;;;;;;;;;;29.62;23.15;99575.00;5067375;28;19951;-80
2024/03/29 11:21:20;;;;;;;;;;;;;;;29.76;21.62;99576.94;5073784;28;19916;-80
2024/03/29 11:23:48;;;;;;;;;;;;;;;29.81;20.29;99566.75;5073654;28;19920;-80
2024/03/29 11:26:14;;;;;;;;;;;;;;;29.68;22.97;99576.53;5068681;28;19917;-79
2024/03/29 11:28:42;;;;;;;;;;;;;;;29.71;23.30;99567.75;5060303;28;19923;-78
2024/03/29 11:31:08;;;;;;;;;;;;;;;29.78;21.73;99567.38;5065263;28;19932;-79
2024/03/29 11:33:42;;;;;;;;;;;;;;;29.93;25.49;99563.53;5061119;28;19921;-79
2024/03/29 11:36:11;;;;;;;;;;;;;;;30.07;22.32;99567.03;5066626;28;19916;-80
2024/03/29 11:38:37;;;;;;;;;;;;;;;30.19;21.52;99561.88;5070314;28;19917;-80
2024/03/29 11:41:24;;;;;;;;;;;;;;;30.26;23.54;99564.16;5067501;28;20411;-80
2024/03/29 11:43:50;;;;;;;;;;;;;;;30.39;22.89;99560.59;5067625;28;19924;-81
2024/03/29 11:46:16;;;;;;;;;;;;;;;30.28;25.05;99570.13;5052963;28;19913;-80
2024/03/29 11:48:41;;;;;;;;;;;;;;;30.28;21.12;99565.47;5055810;28;19917;-80
2024/03/29 11:51:11;;;;;;;;;;;;;;;30.34;23.97;99564.25;5069734;28;20005;-80
2024/03/29 11:53:36;;;;;;;;;;;;;;;30.39;23.30;99566.03;5072735;28;20003;-80
2024/03/29 11:56:03;;;;;;;;;;;;;;;30.43;25.16;99563.50;5071072;28;20000;-79
2024/03/29 11:58:29;;;;;;;;;;;;;;;30.17;24.42;99561.38;5065104;28;20420;-78
2024/03/29 12:00:55;;;;;;;;;;;;;;;30.26;21.83;99561.44;5066536;28;19916;-80
2024/03/29 12:03:21;;;;;;;;;;;;;;;30.26;23.15;99566.91;5072048;28;20007;-78
2024/03/29 12:05:48;;;;;;;;;;;;;;;30.26;23.85;99566.91;5067896;28;19951;-79
2024/03/29 12:08:14;;;;;;;;;;;;;;;30.13;24.63;99563.09;5067505;28;19916;-79
2024/03/29 12:10:39;;;;;;;;;;;;;;;30.16;23.48;99569.84;5055796;28;20034;-79
2024/03/29 12:13:05;;;;;;;;;;;;;;;30.03;20.80;99566.03;5069358;28;19946;-77
2024/03/29 12:15:30;;;;;;;;;;;;;;;29.80;21.17;99567.06;5071260;28;19916;-80
2024/03/29 12:17:57;;;;;;;;;;;;;;;29.71;23.22;99565.03;5069519;28;20028;-80
2024/03/29 12:20:22;;;;;;;;;;;;;;;29.50;24.94;99565.75;5071921;28;20550;-80
2024/03/29 12:22:48;;;;;;;;;;;;;;;29.36;21.94;99555.63;5087918;28;20149;-78
2024/03/29 12:25:13;;;;;;;;;;;;;;;29.24;25.66;99555.34;5070673;28;19913;-80
2024/03/29 12:27:38;;;;;;;;;;;;;;;29.12;24.99;99546.84;5072253;28;19924;-80
2024/03/29 12:30:04;;;;;;;;;;;;;;;28.95;22.55;99550.13;5071398;28;19924;-79
2024/03/29 12:32:33;;;;;;;;;;;;;;;28.83;23.31;99546.25;5071559;28;19924;-79
2024/03/29 12:35:07;;;;;;;;;;;;;;;28.77;21.45;99543.63;5069347;28;20385;-79
2024/03/29 12:37:32;;;;;;;;;;;;;;;28.72;24.04;99540.97;5071792;28;20411;-80
2024/03/29 12:39:59;;;;;;;;;;;;;;;28.69;25.62;99540.78;5071570;28;19917;-80
2024/03/29 12:42:24;;;;;;;;;;;;;;;28.65;24.59;99537.03;5071447;28;19938;-79
2024/03/29 12:44:49;;;;;;;;;;;;;;;28.59;25.45;99539.03;5070054;28;19912;-80
2024/03/29 12:47:15;;;;;;;;;;;;;;;28.52;25.52;99535.88;5069828;28;20377;-80
2024/03/29 12:49:41;;;;;;;;;;;;;;;28.37;24.13;99528.78;5070489;28;19921;-80